CYFSPAWG

Guest
Details From CYFS - Fort Simpson
To PAWG - Wrangell
Flight Number -
Tags Generated
Created
Modified
Stats Distance 466 nm / 863 km
Max Altitude 0 ft / 0 m
Waypoints 3
Social Downloads 0
Likes 0
Share VATSIM

Download

Looking for another format? Having issues loading an existing format? Contact us
Advertisement - Login to hide

Notes

Generated

Route

CYFS R0387 PAWG

ID Type Via Altitude Latitude Longitude Leg Dist Tot Dist Heading (true) Name
O CYFS APT - 0 ft / 0 m 61.76778˚ -121.24371˚ - 0 nm - -
R0387 FIX - 0 ft / 0 m 56.48860˚ -132.38250˚ 466 nm 466 nm 232° / 223° -
O PAWG APT - 0 ft / 0 m 56.48860˚ -132.38250˚ 0 nm 466 nm 0° / 180° -

Altitude Profile

Advertisement - Login to hide

Weather


0- 5 10 15 20 25 30 35+ Temperature / ° C

Clouds and Precipitation
Forecast for 2018-05-25 12:00 UTC. Updated 2 hours ago

Ground ~20,000 ft ~40,000 ft Winds

CYFS

Details ICAO CYFS (YFS)
Name FORT SIMPSON
Region Canada
Timezone America/Yellowknife (UTC-6.0)
Stats Elevation 555 ft / 169 m (AMSL)
Location 61.760281° -121.236665°
Runways 1
Magnetic Variation 19.021° E

METAR

CYFS 251200Z 09003KT 070V150 15SM BKN009 09/07 A2965 RMK ST5 SLP050

Decode

TAF

TAF TAF CYFS 251138Z 2512/2524 VRB03KT P6SM SCT003 SCT012 TEMPO 2512/2514 1SM BR BKN003 FM251400 31006KT P6SM SCT015 TEMPO 2514/2516 BKN015 FM251600 31006KT P6SM SCT040 RMK NXT FCST BY 251800Z

Decode

Departure Runways

ID Width Length Bearing (true) Bearing (mag) Surface Threshold Offset Overrun Length
13 150 ft / 46 m 5,986 ft / 1,825 m 156.01° 136.99° Asphalt 0 ft / 0 m 0 ft / 0 m
31 150 ft / 46 m 5,986 ft / 1,825 m 336.02° 317.00° Asphalt 0 ft / 0 m 0 ft / 0 m

PAWG

Details ICAO PAWG (WRG)
Name WRANGELL
Region USA (Alaska)
Timezone America/Juneau (UTC-8.0)
Stats Elevation 44 ft / 13 m (AMSL)
Location 56.484324° -132.369832°
Runways 1
Magnetic Variation 18.695° E

METAR

PAWG 251156Z AUTO 07008KT 10SM SCT070 OVC090 10/04 A2995

Decode

TAF

PAWG 251122Z 2512/2612 10008KT P6SM -RA BKN060 OVC080 FM251500 11008KT P6SM -RA SCT025 OVC050 FM260100 17005KT P6SM -SHRA BKN025 OVC040 FM260600 13004KT P6SM VCSH SCT025 BKN040 OVC060 AMD LTD TO CLD VIS AND WIND 2512/2515

Decode

Destination Runways

ID Width Length Bearing (true) Bearing (mag) Surface Threshold Offset Overrun Length
10 150 ft / 46 m 5,983 ft / 1,824 m 121.43° 102.73° Asphalt 0 ft / 0 m 0 ft / 0 m
28 150 ft / 46 m 5,983 ft / 1,824 m 301.45° 282.75° Asphalt 0 ft / 0 m 0 ft / 0 m

Approach Navaids

Runway Type Ident Frequency Range Bearing (true) Bearing (mag) Slope Elevation
10 Localiser IRGL 108.50 MHz 18 nm / 33 km 112.18° 93.48° - 40 ft / 12 m (AMSL)
10 DME IRGL 108.50 MHz 18 nm / 33 km - - - 58 ft / 18 m (AMSL)